sensor_id;sensor_type;location;lat;lon;timestamp;temperature;humidity
18043;DHT22;9146;48.074;11.968;2023-01-29T00:01:14;-0.90;99.90
18043;DHT22;9146;48.074;11.968;2023-01-29T00:03:40;-0.90;99.90
18043;DHT22;9146;48.074;11.968;2023-01-29T00:06:10;-0.90;99.90
18043;DHT22;9146;48.074;11.968;2023-01-29T00:08:38;-0.90;99.90
18043;DHT22;9146;48.074;11.968;2023-01-29T00:11:07;-1.00;99.90
18043;DHT22;9146;48.074;11.968;2023-01-29T00:13:34;-1.00;99.90
18043;DHT22;9146;48.074;11.968;2023-01-29T00:16:02;-1.00;99.90
18043;DHT22;9146;48.074;11.968;2023-01-29T00:18:29;-1.00;99.90
18043;DHT22;9146;48.074;11.968;2023-01-29T00:20:56;-1.00;99.90
18043;DHT22;9146;48.074;11.968;2023-01-29T00:23:25;-0.90;99.90
18043;DHT22;9146;48.074;11.968;2023-01-29T00:25:52;-1.00;99.90
18043;DHT22;9146;48.074;11.968;2023-01-29T00:28:19;-1.00;99.90
18043;DHT22;9146;48.074;11.968;2023-01-29T00:30:46;-1.00;99.90
18043;DHT22;9146;48.074;11.968;2023-01-29T00:33:13;-1.00;99.90
18043;DHT22;9146;48.074;11.968;2023-01-29T00:35:40;-0.90;99.90
18043;DHT22;9146;48.074;11.968;2023-01-29T00:38:07;-0.90;99.90
18043;DHT22;9146;48.074;11.968;2023-01-29T00:40:38;-0.90;99.90
18043;DHT22;9146;48.074;11.968;2023-01-29T00:43:23;-1.00;99.90
18043;DHT22;9146;48.074;11.968;2023-01-29T00:46:08;-0.90;99.90
18043;DHT22;9146;48.074;11.968;2023-01-29T00:48:36;-1.00;99.90
18043;DHT22;9146;48.074;11.968;2023-01-29T00:51:03;-1.00;99.90
18043;DHT22;9146;48.074;11.968;2023-01-29T00:53:30;-1.00;99.90
18043;DHT22;9146;48.074;11.968;2023-01-29T00:55:59;-0.90;99.90
18043;DHT22;9146;48.074;11.968;2023-01-29T00:58:26;-1.00;99.90
18043;DHT22;9146;48.074;11.968;2023-01-29T01:00:59;-0.90;99.90
18043;DHT22;9146;48.074;11.968;2023-01-29T01:03:26;-0.90;99.90
18043;DHT22;9146;48.074;11.968;2023-01-29T01:06:02;-0.90;99.90
18043;DHT22;9146;48.074;11.968;2023-01-29T01:08:29;-0.90;99.90
18043;DHT22;9146;48.074;11.968;2023-01-29T01:11:14;-0.90;99.90
18043;DHT22;9146;48.074;11.968;2023-01-29T01:13:41;-0.90;99.90
18043;DHT22;9146;48.074;11.968;2023-01-29T01:16:09;-0.90;99.90
18043;DHT22;9146;48.074;11.968;2023-01-29T01:18:37;-0.90;99.90
18043;DHT22;9146;48.074;11.968;2023-01-29T01:21:04;-0.90;99.90
18043;DHT22;9146;48.074;11.968;2023-01-29T01:23:31;-0.90;99.90
18043;DHT22;9146;48.074;11.968;2023-01-29T01:25:58;-0.90;99.90
18043;DHT22;9146;48.074;11.968;2023-01-29T01:28:27;-0.90;99.90
18043;DHT22;9146;48.074;11.968;2023-01-29T01:30:54;-0.90;99.90
18043;DHT22;9146;48.074;11.968;2023-01-29T01:33:21;-0.90;99.90
18043;DHT22;9146;48.074;11.968;2023-01-29T01:35:48;-0.90;99.90
18043;DHT22;9146;48.074;11.968;2023-01-29T01:38:15;-0.90;99.90
18043;DHT22;9146;48.074;11.968;2023-01-29T01:40:44;-0.90;99.90
18043;DHT22;9146;48.074;11.968;2023-01-29T01:43:11;-0.90;99.90
18043;DHT22;9146;48.074;11.968;2023-01-29T01:45:40;-0.90;99.90
18043;DHT22;9146;48.074;11.968;2023-01-29T01:48:12;-0.90;99.90
18043;DHT22;9146;48.074;11.968;2023-01-29T01:50:43;-0.90;99.90
18043;DHT22;9146;48.074;11.968;2023-01-29T01:53:13;-0.90;99.90
18043;DHT22;9146;48.074;11.968;2023-01-29T01:55:44;-0.80;99.90
18043;DHT22;9146;48.074;11.968;2023-01-29T01:58:18;-0.80;99.90
18043;DHT22;9146;48.074;11.968;2023-01-29T02:00:49;-0.80;99.90
18043;DHT22;9146;48.074;11.968;2023-01-29T02:03:16;-0.80;99.90
18043;DHT22;9146;48.074;11.968;2023-01-29T02:06:03;-0.80;99.90
18043;DHT22;9146;48.074;11.968;2023-01-29T02:08:51;-0.80;99.90
18043;DHT22;9146;48.074;11.968;2023-01-29T02:11:37;-0.80;99.90
18043;DHT22;9146;48.074;11.968;2023-01-29T02:14:05;-0.80;99.90
18043;DHT22;9146;48.074;11.968;2023-01-29T02:16:34;-0.80;99.90
18043;DHT22;9146;48.074;11.968;2023-01-29T02:19:01;-0.80;99.90
18043;DHT22;9146;48.074;11.968;2023-01-29T02:21:44;-0.80;99.90
18043;DHT22;9146;48.074;11.968;2023-01-29T02:24:41;-0.80;99.90
18043;DHT22;9146;48.074;11.968;2023-01-29T02:27:14;-0.80;99.90
18043;DHT22;9146;48.074;11.968;2023-01-29T02:29:53;-0.80;99.90
18043;DHT22;9146;48.074;11.968;2023-01-29T02:32:26;-0.80;99.90
18043;DHT22;9146;48.074;11.968;2023-01-29T02:35:08;-0.80;99.90
18043;DHT22;9146;48.074;11.968;2023-01-29T02:38:04;-0.80;99.90
18043;DHT22;9146;48.074;11.968;2023-01-29T02:40:38;-0.80;99.90
18043;DHT22;9146;48.074;11.968;2023-01-29T02:43:17;-0.80;99.90
18043;DHT22;9146;48.074;11.968;2023-01-29T02:45:57;-0.80;99.90
18043;DHT22;9146;48.074;11.968;2023-01-29T02:48:32;-0.80;99.90
18043;DHT22;9146;48.074;11.968;2023-01-29T02:51:05;-0.80;99.90
18043;DHT22;9146;48.074;11.968;2023-01-29T02:53:38;-0.80;99.90
18043;DHT22;9146;48.074;11.968;2023-01-29T02:56:14;-0.80;99.90
18043;DHT22;9146;48.074;11.968;2023-01-29T02:58:42;-0.70;99.90
18043;DHT22;9146;48.074;11.968;2023-01-29T03:01:15;-0.80;99.90
18043;DHT22;9146;48.074;11.968;2023-01-29T03:03:46;-0.80;99.90
18043;DHT22;9146;48.074;11.968;2023-01-29T03:06:17;-0.80;99.90
18043;DHT22;9146;48.074;11.968;2023-01-29T03:08:52;-0.80;99.90
18043;DHT22;9146;48.074;11.968;2023-01-29T03:11:20;-0.80;99.90
18043;DHT22;9146;48.074;11.968;2023-01-29T03:13:51;-0.80;99.90
18043;DHT22;9146;48.074;11.968;2023-01-29T03:16:24;-0.80;99.90
18043;DHT22;9146;48.074;11.968;2023-01-29T03:18:56;-0.80;99.90
18043;DHT22;9146;48.074;11.968;2023-01-29T03:21:29;-0.80;99.90
18043;DHT22;9146;48.074;11.968;2023-01-29T03:24:17;-0.80;99.90
18043;DHT22;9146;48.074;11.968;2023-01-29T03:27:07;-0.80;99.90
18043;DHT22;9146;48.074;11.968;2023-01-29T03:29:55;-0.80;99.90
18043;DHT22;9146;48.074;11.968;2023-01-29T03:32:42;-0.80;99.90
18043;DHT22;9146;48.074;11.968;2023-01-29T03:35:12;-0.80;99.90
18043;DHT22;9146;48.074;11.968;2023-01-29T03:37:46;-0.80;99.90
18043;DHT22;9146;48.074;11.968;2023-01-29T03:40:14;-0.80;99.90
18043;DHT22;9146;48.074;11.968;2023-01-29T03:42:50;-0.80;99.90
18043;DHT22;9146;48.074;11.968;2023-01-29T03:45:26;-0.90;99.90
18043;DHT22;9146;48.074;11.968;2023-01-29T03:48:04;-0.90;99.90
18043;DHT22;9146;48.074;11.968;2023-01-29T03:50:37;-0.90;99.90
18043;DHT22;9146;48.074;11.968;2023-01-29T03:53:15;-1.00;99.90
18043;DHT22;9146;48.074;11.968;2023-01-29T03:55:50;-1.00;99.90
18043;DHT22;9146;48.074;11.968;2023-01-29T03:58:24;-1.00;99.90
18043;DHT22;9146;48.074;11.968;2023-01-29T04:00:56;-1.00;99.90
18043;DHT22;9146;48.074;11.968;2023-01-29T04:03:30;-1.00;99.90
18043;DHT22;9146;48.074;11.968;2023-01-29T04:06:05;-1.00;99.90
18043;DHT22;9146;48.074;11.968;2023-01-29T04:08:39;-1.00;99.90
18043;DHT22;9146;48.074;11.968;2023-01-29T04:11:10;-1.10;99.90
18043;DHT22;9146;48.074;11.968;2023-01-29T04:13:39;-1.10;99.90
18043;DHT22;9146;48.074;11.968;2023-01-29T04:16:09;-1.10;99.90
18043;DHT22;9146;48.074;11.968;2023-01-29T04:18:42;-1.10;99.90
18043;DHT22;9146;48.074;11.968;2023-01-29T04:21:10;-1.10;99.90
18043;DHT22;9146;48.074;11.968;2023-01-29T04:23:37;-1.10;99.90
18043;DHT22;9146;48.074;11.968;2023-01-29T04:26:23;-1.10;99.90
18043;DHT22;9146;48.074;11.968;2023-01-29T04:29:09;-1.10;99.90
18043;DHT22;9146;48.074;11.968;2023-01-29T04:31:47;-1.10;99.90
18043;DHT22;9146;48.074;11.968;2023-01-29T04:34:22;-1.10;99.90
18043;DHT22;9146;48.074;11.968;2023-01-29T04:36:58;-1.10;99.90
18043;DHT22;9146;48.074;11.968;2023-01-29T04:39:33;-1.20;99.90
18043;DHT22;9146;48.074;11.968;2023-01-29T04:42:07;-1.10;99.90
18043;DHT22;9146;48.074;11.968;2023-01-29T04:44:40;-1.20;99.90
18043;DHT22;9146;48.074;11.968;2023-01-29T04:47:17;-1.20;99.90
18043;DHT22;9146;48.074;11.968;2023-01-29T04:49:54;-1.20;99.90
18043;DHT22;9146;48.074;11.968;2023-01-29T04:52:27;-1.20;99.90
18043;DHT22;9146;48.074;11.968;2023-01-29T04:55:02;-1.20;99.90
18043;DHT22;9146;48.074;11.968;2023-01-29T04:57:34;-1.20;99.90
18043;DHT22;9146;48.074;11.968;2023-01-29T05:00:06;-1.20;99.90
18043;DHT22;9146;48.074;11.968;2023-01-29T05:02:37;-1.20;99.90
18043;DHT22;9146;48.074;11.968;2023-01-29T05:05:07;-1.20;99.90
18043;DHT22;9146;48.074;11.968;2023-01-29T05:07:37;-1.20;99.90
18043;DHT22;9146;48.074;11.968;2023-01-29T05:10:07;-1.20;99.90
18043;DHT22;9146;48.074;11.968;2023-01-29T05:12:36;-1.20;99.90
18043;DHT22;9146;48.074;11.968;2023-01-29T05:15:08;-1.20;99.90
18043;DHT22;9146;48.074;11.968;2023-01-29T05:17:37;-1.20;99.90
18043;DHT22;9146;48.074;11.968;2023-01-29T05:20:09;-1.20;99.90
18043;DHT22;9146;48.074;11.968;2023-01-29T05:22:37;-1.10;99.90
18043;DHT22;9146;48.074;11.968;2023-01-29T05:25:18;-1.10;99.90
18043;DHT22;9146;48.074;11.968;2023-01-29T05:27:48;-1.20;99.90
18043;DHT22;9146;48.074;11.968;2023-01-29T05:30:32;-1.20;99.90
18043;DHT22;9146;48.074;11.968;2023-01-29T05:32:59;-1.20;99.90
18043;DHT22;9146;48.074;11.968;2023-01-29T05:35:28;-1.20;99.90
18043;DHT22;9146;48.074;11.968;2023-01-29T05:37:55;-1.20;99.90
18043;DHT22;9146;48.074;11.968;2023-01-29T05:40:22;-1.20;99.90
18043;DHT22;9146;48.074;11.968;2023-01-29T05:42:49;-1.20;99.90
18043;DHT22;9146;48.074;11.968;2023-01-29T05:45:17;-1.20;99.90
18043;DHT22;9146;48.074;11.968;2023-01-29T05:47:44;-1.10;99.90
18043;DHT22;9146;48.074;11.968;2023-01-29T05:50:12;-1.20;99.90
18043;DHT22;9146;48.074;11.968;2023-01-29T05:52:41;-1.20;99.90
18043;DHT22;9146;48.074;11.968;2023-01-29T05:55:09;-1.20;99.90
18043;DHT22;9146;48.074;11.968;2023-01-29T05:57:36;-1.20;99.90
18043;DHT22;9146;48.074;11.968;2023-01-29T06:00:05;-1.20;99.90
18043;DHT22;9146;48.074;11.968;2023-01-29T06:02:32;-1.20;99.90
18043;DHT22;9146;48.074;11.968;2023-01-29T06:04:59;-1.10;99.90
18043;DHT22;9146;48.074;11.968;2023-01-29T06:07:26;-1.10;99.90
18043;DHT22;9146;48.074;11.968;2023-01-29T06:09:54;-1.10;99.90
18043;DHT22;9146;48.074;11.968;2023-01-29T06:12:21;-1.10;99.90
18043;DHT22;9146;48.074;11.968;2023-01-29T06:14:48;-1.10;99.90
18043;DHT22;9146;48.074;11.968;2023-01-29T06:17:15;-1.20;99.90
18043;DHT22;9146;48.074;11.968;2023-01-29T06:19:42;-1.10;99.90
18043;DHT22;9146;48.074;11.968;2023-01-29T06:22:09;-1.10;99.90
18043;DHT22;9146;48.074;11.968;2023-01-29T06:24:36;-1.10;99.90
18043;DHT22;9146;48.074;11.968;2023-01-29T06:27:06;-1.10;99.90
18043;DHT22;9146;48.074;11.968;2023-01-29T06:29:33;-1.10;99.90
18043;DHT22;9146;48.074;11.968;2023-01-29T06:32:01;-1.10;99.90
18043;DHT22;9146;48.074;11.968;2023-01-29T06:34:27;-1.10;99.90
18043;DHT22;9146;48.074;11.968;2023-01-29T06:36:54;-1.10;99.90
18043;DHT22;9146;48.074;11.968;2023-01-29T06:39:21;-1.10;99.90
18043;DHT22;9146;48.074;11.968;2023-01-29T06:41:48;-1.10;99.90
18043;DHT22;9146;48.074;11.968;2023-01-29T06:44:16;-1.10;99.90
18043;DHT22;9146;48.074;11.968;2023-01-29T06:46:43;-1.10;99.90
18043;DHT22;9146;48.074;11.968;2023-01-29T06:49:10;-1.10;99.90
18043;DHT22;9146;48.074;11.968;2023-01-29T06:51:37;-1.10;99.90
18043;DHT22;9146;48.074;11.968;2023-01-29T06:54:04;-1.10;99.90
18043;DHT22;9146;48.074;11.968;2023-01-29T06:56:33;-1.10;99.90
18043;DHT22;9146;48.074;11.968;2023-01-29T06:59:00;-1.10;99.90
18043;DHT22;9146;48.074;11.968;2023-01-29T07:01:28;-1.10;99.90
18043;DHT22;9146;48.074;11.968;2023-01-29T07:03:55;-1.10;99.90
18043;DHT22;9146;48.074;11.968;2023-01-29T07:06:26;-1.10;99.90
18043;DHT22;9146;48.074;11.968;2023-01-29T07:08:53;-1.10;99.90
18043;DHT22;9146;48.074;11.968;2023-01-29T07:11:20;-1.10;99.90
18043;DHT22;9146;48.074;11.968;2023-01-29T07:13:47;-1.10;99.90
18043;DHT22;9146;48.074;11.968;2023-01-29T07:16:14;-1.10;99.90
18043;DHT22;9146;48.074;11.968;2023-01-29T07:18:42;-1.00;99.90
18043;DHT22;9146;48.074;11.968;2023-01-29T07:21:10;-1.00;99.90
18043;DHT22;9146;48.074;11.968;2023-01-29T07:23:37;-1.00;99.90
18043;DHT22;9146;48.074;11.968;2023-01-29T07:26:05;-1.00;99.90
18043;DHT22;9146;48.074;11.968;2023-01-29T07:28:35;-1.00;99.90
18043;DHT22;9146;48.074;11.968;2023-01-29T07:31:04;-0.90;99.90
18043;DHT22;9146;48.074;11.968;2023-01-29T07:33:31;-0.90;99.90
18043;DHT22;9146;48.074;11.968;2023-01-29T07:36:00;-0.90;99.90
18043;DHT22;9146;48.074;11.968;2023-01-29T07:38:26;-0.90;99.90
18043;DHT22;9146;48.074;11.968;2023-01-29T07:40:54;-0.90;99.90
18043;DHT22;9146;48.074;11.968;2023-01-29T07:43:21;-0.90;99.90
18043;DHT22;9146;48.074;11.968;2023-01-29T07:45:49;-0.90;99.90
18043;DHT22;9146;48.074;11.968;2023-01-29T07:48:16;-0.80;99.90
18043;DHT22;9146;48.074;11.968;2023-01-29T07:50:43;-0.80;99.90
18043;DHT22;9146;48.074;11.968;2023-01-29T07:53:13;-0.80;99.90
18043;DHT22;9146;48.074;11.968;2023-01-29T07:55:42;-0.80;99.90
18043;DHT22;9146;48.074;11.968;2023-01-29T07:58:10;-0.80;99.90
18043;DHT22;9146;48.074;11.968;2023-01-29T08:00:37;-0.70;99.90
18043;DHT22;9146;48.074;11.968;2023-01-29T08:03:05;-0.70;99.90
18043;DHT22;9146;48.074;11.968;2023-01-29T08:05:32;-0.70;99.90
18043;DHT22;9146;48.074;11.968;2023-01-29T08:07:59;-0.60;99.90
18043;DHT22;9146;48.074;11.968;2023-01-29T08:10:28;-0.50;99.90
18043;DHT22;9146;48.074;11.968;2023-01-29T08:12:56;-0.50;99.90
18043;DHT22;9146;48.074;11.968;2023-01-29T08:15:23;-0.50;99.90
18043;DHT22;9146;48.074;11.968;2023-01-29T08:17:51;-0.40;99.90
18043;DHT22;9146;48.074;11.968;2023-01-29T08:20:18;-0.40;99.90
18043;DHT22;9146;48.074;11.968;2023-01-29T08:22:46;-0.40;99.90
18043;DHT22;9146;48.074;11.968;2023-01-29T08:25:13;-0.30;99.90
18043;DHT22;9146;48.074;11.968;2023-01-29T08:27:42;-0.30;99.90
18043;DHT22;9146;48.074;11.968;2023-01-29T08:30:10;-0.30;99.90
18043;DHT22;9146;48.074;11.968;2023-01-29T08:32:37;-0.30;99.90
18043;DHT22;9146;48.074;11.968;2023-01-29T08:35:05;-0.20;99.90
18043;DHT22;9146;48.074;11.968;2023-01-29T08:37:32;-0.20;99.90
18043;DHT22;9146;48.074;11.968;2023-01-29T08:39:59;-0.10;99.90
18043;DHT22;9146;48.074;11.968;2023-01-29T08:42:26;-0.20;99.90
18043;DHT22;9146;48.074;11.968;2023-01-29T08:44:54;-0.10;99.90
18043;DHT22;9146;48.074;11.968;2023-01-29T08:47:21;0.00;99.90
18043;DHT22;9146;48.074;11.968;2023-01-29T08:49:48;0.00;99.90
18043;DHT22;9146;48.074;11.968;2023-01-29T08:52:15;0.20;99.90
18043;DHT22;9146;48.074;11.968;2023-01-29T08:54:41;0.30;99.90
18043;DHT22;9146;48.074;11.968;2023-01-29T08:57:08;0.30;99.90
18043;DHT22;9146;48.074;11.968;2023-01-29T08:59:35;0.40;99.90
18043;DHT22;9146;48.074;11.968;2023-01-29T09:02:04;0.40;99.90
18043;DHT22;9146;48.074;11.968;2023-01-29T09:04:31;0.50;99.90
18043;DHT22;9146;48.074;11.968;2023-01-29T09:06:57;0.60;99.90
18043;DHT22;9146;48.074;11.968;2023-01-29T09:09:24;0.70;99.90
18043;DHT22;9146;48.074;11.968;2023-01-29T09:11:51;0.70;99.90
18043;DHT22;9146;48.074;11.968;2023-01-29T09:14:18;0.70;99.90
18043;DHT22;9146;48.074;11.968;2023-01-29T09:16:45;0.80;99.90
18043;DHT22;9146;48.074;11.968;2023-01-29T09:19:14;0.80;99.90
18043;DHT22;9146;48.074;11.968;2023-01-29T09:21:40;0.90;99.90
18043;DHT22;9146;48.074;11.968;2023-01-29T09:24:07;0.90;99.90
18043;DHT22;9146;48.074;11.968;2023-01-29T09:26:35;0.90;99.90
18043;DHT22;9146;48.074;11.968;2023-01-29T09:29:04;1.00;99.90
18043;DHT22;9146;48.074;11.968;2023-01-29T09:31:31;1.00;99.90
18043;DHT22;9146;48.074;11.968;2023-01-29T09:33:58;1.10;99.90
18043;DHT22;9146;48.074;11.968;2023-01-29T09:36:26;1.10;99.90
18043;DHT22;9146;48.074;11.968;2023-01-29T09:38:53;1.10;99.90
18043;DHT22;9146;48.074;11.968;2023-01-29T09:41:31;1.10;99.90
18043;DHT22;9146;48.074;11.968;2023-01-29T09:44:02;1.20;99.90
18043;DHT22;9146;48.074;11.968;2023-01-29T09:46:34;1.20;99.90
18043;DHT22;9146;48.074;11.968;2023-01-29T09:49:10;1.10;99.90
18043;DHT22;9146;48.074;11.968;2023-01-29T09:51:43;1.10;99.90
18043;DHT22;9146;48.074;11.968;2023-01-29T09:54:16;1.00;99.90
18043;DHT22;9146;48.074;11.968;2023-01-29T09:56:45;1.10;99.90
18043;DHT22;9146;48.074;11.968;2023-01-29T09:59:13;1.10;99.90
18043;DHT22;9146;48.074;11.968;2023-01-29T10:01:49;1.10;99.90
18043;DHT22;9146;48.074;11.968;2023-01-29T10:04:49;1.00;99.90
18043;DHT22;9146;48.074;11.968;2023-01-29T10:07:35;0.90;99.90
18043;DHT22;9146;48.074;11.968;2023-01-29T10:10:25;0.90;99.90
18043;DHT22;9146;48.074;11.968;2023-01-29T10:13:01;0.90;99.90
18043;DHT22;9146;48.074;11.968;2023-01-29T10:15:40;0.90;99.90
18043;DHT22;9146;48.074;11.968;2023-01-29T10:18:33;0.80;99.90
18043;DHT22;9146;48.074;11.968;2023-01-29T10:21:12;0.80;99.90
18043;DHT22;9146;48.074;11.968;2023-01-29T10:23:47;0.80;99.90
18043;DHT22;9146;48.074;11.968;2023-01-29T10:26:19;0.90;99.90
18043;DHT22;9146;48.074;11.968;2023-01-29T10:28:49;0.90;99.90
18043;DHT22;9146;48.074;11.968;2023-01-29T10:31:18;0.90;99.90
18043;DHT22;9146;48.074;11.968;2023-01-29T10:33:49;0.90;99.90
18043;DHT22;9146;48.074;11.968;2023-01-29T10:36:20;0.90;99.90
18043;DHT22;9146;48.074;11.968;2023-01-29T10:38:50;0.90;99.90
18043;DHT22;9146;48.074;11.968;2023-01-29T10:41:24;1.00;99.90
18043;DHT22;9146;48.074;11.968;2023-01-29T10:44:02;1.00;99.90
18043;DHT22;9146;48.074;11.968;2023-01-29T10:46:46;1.00;99.90
18043;DHT22;9146;48.074;11.968;2023-01-29T10:49:27;1.00;99.90
18043;DHT22;9146;48.074;11.968;2023-01-29T10:52:09;1.00;99.90
18043;DHT22;9146;48.074;11.968;2023-01-29T10:54:50;1.00;99.90
18043;DHT22;9146;48.074;11.968;2023-01-29T10:57:25;1.00;99.90
18043;DHT22;9146;48.074;11.968;2023-01-29T11:00:03;1.00;99.90
18043;DHT22;9146;48.074;11.968;2023-01-29T11:02:34;0.90;99.90
18043;DHT22;9146;48.074;11.968;2023-01-29T11:05:01;1.00;99.90
18043;DHT22;9146;48.074;11.968;2023-01-29T11:07:28;1.00;99.90
18043;DHT22;9146;48.074;11.968;2023-01-29T11:10:03;1.00;99.90
18043;DHT22;9146;48.074;11.968;2023-01-29T11:12:33;1.00;99.90
18043;DHT22;9146;48.074;11.968;2023-01-29T11:15:06;1.10;99.90
18043;DHT22;9146;48.074;11.968;2023-01-29T11:18:00;1.10;99.90
18043;DHT22;9146;48.074;11.968;2023-01-29T11:20:29;1.10;99.90
18043;DHT22;9146;48.074;11.968;2023-01-29T11:22:57;1.10;99.90
18043;DHT22;9146;48.074;11.968;2023-01-29T11:25:26;1.00;99.90
18043;DHT22;9146;48.074;11.968;2023-01-29T11:27:58;1.00;99.90
18043;DHT22;9146;48.074;11.968;2023-01-29T11:30:28;0.90;99.90
18043;DHT22;9146;48.074;11.968;2023-01-29T11:33:04;0.90;99.90
18043;DHT22;9146;48.074;11.968;2023-01-29T11:35:33;1.00;99.90
18043;DHT22;9146;48.074;11.968;2023-01-29T11:38:14;1.00;99.90
18043;DHT22;9146;48.074;11.968;2023-01-29T11:40:45;1.00;99.90
18043;DHT22;9146;48.074;11.968;2023-01-29T11:43:21;1.00;99.90
18043;DHT22;9146;48.074;11.968;2023-01-29T11:45:50;1.10;99.90
18043;DHT22;9146;48.074;11.968;2023-01-29T11:48:19;1.10;99.90
18043;DHT22;9146;48.074;11.968;2023-01-29T11:50:51;1.00;99.90
18043;DHT22;9146;48.074;11.968;2023-01-29T11:56:20;1.10;99.90
18043;DHT22;9146;48.074;11.968;2023-01-29T11:58:49;1.10;99.90
18043;DHT22;9146;48.074;11.968;2023-01-29T12:01:26;1.10;99.90
18043;DHT22;9146;48.074;11.968;2023-01-29T12:03:53;1.10;99.90
18043;DHT22;9146;48.074;11.968;2023-01-29T12:06:22;1.00;99.90
18043;DHT22;9146;48.074;11.968;2023-01-29T12:08:56;1.10;99.90
18043;DHT22;9146;48.074;11.968;2023-01-29T12:11:28;1.10;99.90
18043;DHT22;9146;48.074;11.968;2023-01-29T12:13:56;1.10;99.90
18043;DHT22;9146;48.074;11.968;2023-01-29T12:16:27;1.30;99.90
18043;DHT22;9146;48.074;11.968;2023-01-29T12:18:59;1.40;99.90
18043;DHT22;9146;48.074;11.968;2023-01-29T12:21:33;1.40;99.90
18043;DHT22;9146;48.074;11.968;2023-01-29T12:24:05;1.60;99.90
18043;DHT22;9146;48.074;11.968;2023-01-29T12:26:41;1.80;99.90
18043;DHT22;9146;48.074;11.968;2023-01-29T12:29:22;2.00;99.90
18043;DHT22;9146;48.074;11.968;2023-01-29T12:31:57;2.20;99.90
18043;DHT22;9146;48.074;11.968;2023-01-29T12:34:32;2.20;99.90
18043;DHT22;9146;48.074;11.968;2023-01-29T12:37:08;2.30;99.90
18043;DHT22;9146;48.074;11.968;2023-01-29T12:39:37;2.40;99.90
18043;DHT22;9146;48.074;11.968;2023-01-29T12:42:11;2.50;99.90
18043;DHT22;9146;48.074;11.968;2023-01-29T12:44:43;2.50;99.90
18043;DHT22;9146;48.074;11.968;2023-01-29T12:47:14;2.50;99.90
18043;DHT22;9146;48.074;11.968;2023-01-29T12:49:47;2.40;99.90
18043;DHT22;9146;48.074;11.968;2023-01-29T12:52:19;2.40;99.90
18043;DHT22;9146;48.074;11.968;2023-01-29T12:54:52;2.30;99.90
18043;DHT22;9146;48.074;11.968;2023-01-29T12:57:24;2.20;99.90
18043;DHT22;9146;48.074;11.968;2023-01-29T13:00:00;2.10;99.90
18043;DHT22;9146;48.074;11.968;2023-01-29T13:02:32;2.10;99.90
18043;DHT22;9146;48.074;11.968;2023-01-29T13:05:03;2.00;99.90
18043;DHT22;9146;48.074;11.968;2023-01-29T13:07:35;2.00;99.90
18043;DHT22;9146;48.074;11.968;2023-01-29T13:10:08;1.80;99.90
18043;DHT22;9146;48.074;11.968;2023-01-29T13:12:38;1.70;99.90
18043;DHT22;9146;48.074;11.968;2023-01-29T13:15:16;1.70;99.90
18043;DHT22;9146;48.074;11.968;2023-01-29T13:17:50;1.60;99.90
18043;DHT22;9146;48.074;11.968;2023-01-29T13:20:21;1.60;99.90
18043;DHT22;9146;48.074;11.968;2023-01-29T13:22:51;1.50;99.90
18043;DHT22;9146;48.074;11.968;2023-01-29T13:25:19;1.50;99.90
18043;DHT22;9146;48.074;11.968;2023-01-29T13:27:48;1.50;99.90
18043;DHT22;9146;48.074;11.968;2023-01-29T13:30:26;1.50;99.90
18043;DHT22;9146;48.074;11.968;2023-01-29T13:32:54;1.50;99.90
18043;DHT22;9146;48.074;11.968;2023-01-29T13:35:34;1.50;99.90
18043;DHT22;9146;48.074;11.968;2023-01-29T13:38:02;1.60;99.90
18043;DHT22;9146;48.074;11.968;2023-01-29T13:40:31;1.60;99.90
18043;DHT22;9146;48.074;11.968;2023-01-29T13:43:02;1.60;99.90
18043;DHT22;9146;48.074;11.968;2023-01-29T13:45:34;1.60;99.90
18043;DHT22;9146;48.074;11.968;2023-01-29T13:48:20;1.60;99.90
18043;DHT22;9146;48.074;11.968;2023-01-29T13:50:48;1.60;99.90
18043;DHT22;9146;48.074;11.968;2023-01-29T13:53:23;1.40;99.90
18043;DHT22;9146;48.074;11.968;2023-01-29T13:55:50;1.30;99.90
18043;DHT22;9146;48.074;11.968;2023-01-29T13:58:51;1.20;99.90
18043;DHT22;9146;48.074;11.968;2023-01-29T14:02:00;1.10;99.90
18043;DHT22;9146;48.074;11.968;2023-01-29T14:04:30;1.00;99.90
18043;DHT22;9146;48.074;11.968;2023-01-29T14:06:58;0.90;99.90
18043;DHT22;9146;48.074;11.968;2023-01-29T14:12:46;0.90;99.90
18043;DHT22;9146;48.074;11.968;2023-01-29T14:15:31;0.90;99.90
18043;DHT22;9146;48.074;11.968;2023-01-29T14:18:03;0.90;99.90
18043;DHT22;9146;48.074;11.968;2023-01-29T14:20:34;0.90;99.90
18043;DHT22;9146;48.074;11.968;2023-01-29T14:23:03;0.90;99.90
18043;DHT22;9146;48.074;11.968;2023-01-29T14:25:33;0.80;99.90
18043;DHT22;9146;48.074;11.968;2023-01-29T14:28:04;0.70;99.90
18043;DHT22;9146;48.074;11.968;2023-01-29T14:30:46;0.60;99.90
18043;DHT22;9146;48.074;11.968;2023-01-29T14:33:26;0.60;99.90
18043;DHT22;9146;48.074;11.968;2023-01-29T14:35:55;0.50;99.90
18043;DHT22;9146;48.074;11.968;2023-01-29T14:38:26;0.50;99.90
18043;DHT22;9146;48.074;11.968;2023-01-29T14:41:04;0.40;99.90
18043;DHT22;9146;48.074;11.968;2023-01-29T14:43:31;0.40;99.90
18043;DHT22;9146;48.074;11.968;2023-01-29T14:49:00;0.30;99.90
18043;DHT22;9146;48.074;11.968;2023-01-29T14:51:33;0.20;99.90
18043;DHT22;9146;48.074;11.968;2023-01-29T14:54:05;0.20;99.90
18043;DHT22;9146;48.074;11.968;2023-01-29T14:56:42;0.20;99.90
18043;DHT22;9146;48.074;11.968;2023-01-29T14:59:18;0.10;99.90
18043;DHT22;9146;48.074;11.968;2023-01-29T15:01:47;0.10;99.90
18043;DHT22;9146;48.074;11.968;2023-01-29T15:04:21;0.10;99.90
18043;DHT22;9146;48.074;11.968;2023-01-29T15:06:54;0.00;99.90
18043;DHT22;9146;48.074;11.968;2023-01-29T15:09:31;0.00;99.90
18043;DHT22;9146;48.074;11.968;2023-01-29T15:12:09;-0.10;99.90
18043;DHT22;9146;48.074;11.968;2023-01-29T15:14:42;-0.10;99.90
18043;DHT22;9146;48.074;11.968;2023-01-29T15:17:23;-0.10;99.90
18043;DHT22;9146;48.074;11.968;2023-01-29T15:19:52;-0.10;99.90
18043;DHT22;9146;48.074;11.968;2023-01-29T15:22:22;-0.20;99.90
18043;DHT22;9146;48.074;11.968;2023-01-29T15:25:03;-0.20;99.90
18043;DHT22;9146;48.074;11.968;2023-01-29T15:27:32;-0.20;99.90
18043;DHT22;9146;48.074;11.968;2023-01-29T15:30:01;-0.20;99.90
18043;DHT22;9146;48.074;11.968;2023-01-29T15:32:32;-0.20;99.90
18043;DHT22;9146;48.074;11.968;2023-01-29T15:35:08;-0.30;99.90
18043;DHT22;9146;48.074;11.968;2023-01-29T15:37:35;-0.30;99.90
18043;DHT22;9146;48.074;11.968;2023-01-29T15:40:05;-0.30;99.90
18043;DHT22;9146;48.074;11.968;2023-01-29T15:42:42;-0.30;99.90
18043;DHT22;9146;48.074;11.968;2023-01-29T15:45:21;-0.40;99.90
18043;DHT22;9146;48.074;11.968;2023-01-29T15:47:48;-0.40;99.90
18043;DHT22;9146;48.074;11.968;2023-01-29T15:50:17;-0.40;99.90
18043;DHT22;9146;48.074;11.968;2023-01-29T15:52:47;-0.40;99.90
18043;DHT22;9146;48.074;11.968;2023-01-29T15:55:15;-0.50;99.90
18043;DHT22;9146;48.074;11.968;2023-01-29T15:57:44;-0.50;99.90
18043;DHT22;9146;48.074;11.968;2023-01-29T16:00:21;-0.50;99.90
18043;DHT22;9146;48.074;11.968;2023-01-29T16:02:49;-0.50;99.90
18043;DHT22;9146;48.074;11.968;2023-01-29T16:05:20;-0.50;99.90
18043;DHT22;9146;48.074;11.968;2023-01-29T16:07:48;-0.60;99.90
18043;DHT22;9146;48.074;11.968;2023-01-29T16:10:18;-0.70;99.90
18043;DHT22;9146;48.074;11.968;2023-01-29T16:12:46;-0.70;99.90
18043;DHT22;9146;48.074;11.968;2023-01-29T16:15:22;-0.70;99.90